Time;durP1;ratioP1;P1;durP2;ratioP2;P2;SDS_P1;SDS_P2;PMS_P1;PMS_P2;Temp;Humidity;BMP_temperature;BMP_pressure;BME280_temperature;BME280_humidity;BME280_pressure;Samples;Min_cycle;Max_cycle;Signal;HPM_P1;HPM_P2
2023/10/26 00:01:01;;;;;;;0.82;0.68;;;;;;;12.58;89.42;98757.81;4194918;28;20402;-68
2023/10/26 00:03:05;;;;;;;0.50;0.50;;;;;;;12.54;89.56;98755.31;4197339;28;20037;-68
2023/10/26 00:05:09;;;;;;;0.30;0.30;;;;;;;12.57;89.51;98758.75;4173293;28;20056;-68
2023/10/26 00:07:11;;;;;;;0.60;0.60;;;;;;;12.56;89.19;98751.81;4186996;28;20502;-68
2023/10/26 00:09:14;;;;;;;1.50;0.40;;;;;;;12.61;89.24;98762.13;4195166;28;20036;-67
2023/10/26 00:11:19;;;;;;;1.20;0.57;;;;;;;12.63;89.01;98767.31;4178669;28;20040;-68
2023/10/26 00:13:22;;;;;;;0.88;0.70;;;;;;;12.62;88.80;98761.25;4191505;28;20036;-68
2023/10/26 00:15:24;;;;;;;0.50;0.50;;;;;;;12.65;88.74;98761.16;4194202;28;20094;-68
2023/10/26 00:17:27;;;;;;;0.73;0.60;;;;;;;12.70;88.83;98766.28;4184253;28;20036;-68
2023/10/26 00:19:30;;;;;;;0.90;0.45;;;;;;;12.68;88.72;98761.09;4191586;28;20036;-68
2023/10/26 00:21:33;;;;;;;1.85;0.60;;;;;;;12.66;88.81;98765.50;4196331;28;20393;-68
2023/10/26 00:23:35;;;;;;;0.40;0.40;;;;;;;12.65;89.00;98771.59;4188120;28;20029;-68
2023/10/26 00:25:38;;;;;;;1.83;0.85;;;;;;;12.68;88.78;98762.88;4174003;28;20070;-68
2023/10/26 00:27:42;;;;;;;0.75;0.45;;;;;;;12.70;88.60;98759.34;4169580;28;20124;-68
2023/10/26 00:29:45;;;;;;;0.73;0.50;;;;;;;12.72;88.57;98760.16;4179436;28;20037;-68
2023/10/26 00:31:47;;;;;;;1.13;0.50;;;;;;;12.74;88.73;98760.97;4173758;28;20034;-68
2023/10/26 00:33:49;;;;;;;0.52;0.40;;;;;;;12.75;88.32;98765.28;4195503;28;20066;-68
2023/10/26 00:35:52;;;;;;;0.80;0.50;;;;;;;12.77;88.42;98765.25;4195005;28;20032;-68
2023/10/26 00:37:55;;;;;;;5.13;0.90;;;;;;;12.76;88.78;98758.31;4172156;28;20037;-68
2023/10/26 00:39:58;;;;;;;2.15;0.95;;;;;;;12.78;88.01;98760.91;4179026;28;20055;-68
2023/10/26 00:42:01;;;;;;;1.05;0.70;;;;;;;12.80;87.97;98765.19;4193522;28;20043;-68
2023/10/26 00:44:05;;;;;;;0.47;0.47;;;;;;;12.80;88.19;98759.13;4171918;28;20050;-68
2023/10/26 00:46:10;;;;;;;0.90;0.70;;;;;;;12.78;88.08;98766.97;4177042;28;20056;-68
2023/10/26 00:48:14;;;;;;;0.88;0.60;;;;;;;12.77;88.10;98767.88;4167628;28;20049;-68
2023/10/26 00:50:17;;;;;;;0.50;0.50;;;;;;;12.77;88.05;98765.25;4173408;28;20087;-68
2023/10/26 00:52:21;;;;;;;2.33;0.70;;;;;;;12.80;88.23;98764.34;4176443;28;20037;-68
2023/10/26 00:54:25;;;;;;;2.10;0.63;;;;;;;12.78;88.72;98766.13;4172910;28;20049;-68
2023/10/26 00:56:28;;;;;;;0.85;0.75;;;;;;;12.77;88.19;98772.25;4177756;28;20044;-68
2023/10/26 00:58:31;;;;;;;1.75;0.70;;;;;;;12.77;88.37;98772.25;4169583;28;20033;-68
2023/10/26 01:00:35;;;;;;;2.55;0.77;;;;;;;12.78;88.69;98768.75;4173403;28;20092;-68
2023/10/26 01:02:39;;;;;;;4.28;0.68;;;;;;;12.76;88.48;98771.34;4196415;28;20131;-68
2023/10/26 01:04:42;;;;;;;0.95;0.63;;;;;;;12.77;88.42;98767.03;4177608;28;20037;-68
2023/10/26 01:06:45;;;;;;;2.25;0.70;;;;;;;12.74;88.43;98768.78;4177210;28;20039;-68
2023/10/26 01:08:48;;;;;;;2.53;0.70;;;;;;;12.74;88.35;98778.38;4173702;28;20040;-68
2023/10/26 01:10:52;;;;;;;0.43;0.43;;;;;;;12.73;88.93;98787.06;4177018;28;20033;-68
2023/10/26 01:12:55;;;;;;;0.82;0.65;;;;;;;12.73;88.65;98792.28;4176231;28;20068;-68
2023/10/26 01:14:58;;;;;;;5.03;0.82;;;;;;;12.77;88.33;98787.88;4182762;28;20041;-68
2023/10/26 01:17:03;;;;;;;0.95;0.65;;;;;;;12.75;88.71;98780.94;4191417;28;20086;-68
2023/10/26 01:19:08;;;;;;;2.88;0.80;;;;;;;12.74;88.44;98787.03;4172827;28;20076;-68
2023/10/26 01:21:11;;;;;;;0.80;0.68;;;;;;;12.72;88.22;98788.00;4192739;28;20040;-68
2023/10/26 01:23:15;;;;;;;1.50;0.80;;;;;;;12.74;88.60;98796.63;4174656;28;20072;-68
2023/10/26 01:25:18;;;;;;;1.20;0.55;;;;;;;12.73;88.51;98800.09;4176658;28;20037;-68
2023/10/26 01:27:21;;;;;;;1.10;0.65;;;;;;;12.75;88.34;98798.34;4177722;28;20052;-67
2023/10/26 01:29:23;;;;;;;0.75;0.70;;;;;;;12.76;88.41;98789.59;4166635;28;20124;-68
2023/10/26 01:31:26;;;;;;;5.60;1.00;;;;;;;12.77;88.18;98791.34;4194093;28;20040;-67
2023/10/26 01:33:29;;;;;;;0.43;0.40;;;;;;;12.76;88.47;98792.22;4176623;28;20037;-68
2023/10/26 01:35:38;;;;;;;2.38;0.60;;;;;;;12.72;88.49;98794.03;4195327;28;20032;-68
2023/10/26 01:37:41;;;;;;;1.27;0.60;;;;;;;12.72;88.49;98794.03;4194481;28;20054;-68
2023/10/26 01:39:44;;;;;;;2.03;0.70;;;;;;;12.71;88.40;98784.50;4174709;28;20075;-67
2023/10/26 01:41:47;;;;;;;1.15;0.50;;;;;;;12.72;88.25;98783.63;4178663;28;20033;-68
2023/10/26 01:43:51;;;;;;;2.55;0.80;;;;;;;12.74;88.42;98786.19;4176164;28;20041;-68
2023/10/26 01:45:54;;;;;;;0.80;0.80;;;;;;;12.75;88.25;98785.31;4179662;28;20033;-68
2023/10/26 01:47:58;;;;;;;0.93;0.80;;;;;;;12.75;88.45;98788.75;4176725;28;20037;-68
2023/10/26 01:50:02;;;;;;;;;;;;;;;12.65;88.63;98782.03;4173632;28;20039;-68
2023/10/26 01:52:05;;;;;;;0.50;0.50;;;;;;;12.66;88.96;98780.28;4168196;28;19925;-68
2023/10/26 01:54:08;;;;;;;0.67;0.67;;;;;;;12.67;88.98;98782.00;4177325;28;20043;-68
2023/10/26 01:56:15;;;;;;;0.47;0.47;;;;;;;12.71;88.33;98791.47;4174064;28;20361;-68
2023/10/26 01:58:18;;;;;;;0.65;0.65;;;;;;;12.69;88.47;98795.88;4191195;28;20037;-68
2023/10/26 02:00:22;;;;;;;0.70;0.70;;;;;;;12.70;88.74;98795.84;4166226;28;20135;-68
2023/10/26 02:02:25;;;;;;;4.35;0.80;;;;;;;12.73;88.26;98789.69;4186510;28;20055;-68
2023/10/26 02:04:28;;;;;;;0.60;0.60;;;;;;;12.70;88.10;98792.34;4197706;28;20060;-68
2023/10/26 02:06:31;;;;;;;0.60;0.60;;;;;;;12.69;88.27;98793.28;4160993;28;20045;-68
2023/10/26 02:08:33;;;;;;;0.70;0.70;;;;;;;12.69;88.43;98798.47;4168648;28;20046;-68
2023/10/26 02:10:36;;;;;;;0.90;0.90;;;;;;;12.72;88.19;98798.41;4190313;28;20036;-68
2023/10/26 02:12:41;;;;;;;0.73;0.52;;;;;;;12.69;88.40;98803.69;4167142;28;20041;-68
2023/10/26 02:14:44;;;;;;;1.08;0.52;;;;;;;12.70;88.70;98805.38;4190613;28;20036;-68
2023/10/26 02:16:47;;;;;;;1.15;0.60;;;;;;;12.73;88.11;98802.72;4174791;28;20494;-68
2023/10/26 02:18:51;;;;;;;0.70;0.70;;;;;;;12.86;87.17;98803.31;4172023;28;20530;-68
2023/10/26 02:20:54;;;;;;;2.58;1.00;;;;;;;12.79;86.88;98804.34;4158769;28;20045;-68
2023/10/26 02:22:57;;;;;;;0.70;0.60;;;;;;;12.77;87.12;98801.78;4164949;28;20045;-68
2023/10/26 02:25:00;;;;;;;2.75;0.80;;;;;;;12.75;87.44;98803.56;4179369;28;20365;-68
2023/10/26 02:27:03;;;;;;;0.68;0.68;;;;;;;12.78;87.18;98806.09;4168410;28;20116;-68
2023/10/26 02:29:07;;;;;;;1.48;0.73;;;;;;;12.73;87.54;98807.94;4160186;28;20507;-68
2023/10/26 02:31:09;;;;;;;1.52;0.60;;;;;;;12.80;86.84;98796.47;4193837;28;20474;-68
2023/10/26 02:33:12;;;;;;;0.70;0.65;;;;;;;12.73;86.04;98800.09;4175026;28;20128;-68
2023/10/26 02:35:20;;;;;;;0.85;0.57;;;;;;;12.69;86.36;98809.75;4175603;28;20041;-68
2023/10/26 02:37:23;;;;;;;0.77;0.70;;;;;;;12.68;86.39;98808.03;4196159;28;20454;-68
2023/10/26 02:39:27;;;;;;;1.35;0.45;;;;;;;12.68;85.99;98802.81;4156476;28;20072;-68
2023/10/26 02:41:30;;;;;;;1.52;0.70;;;;;;;12.62;86.17;98813.38;4176351;28;20090;-68
2023/10/26 02:43:33;;;;;;;1.35;0.70;;;;;;;12.62;86.73;98813.38;4178691;28;20076;-68
2023/10/26 02:45:37;;;;;;;0.50;0.50;;;;;;;12.68;86.13;98812.41;4174373;28;20041;-68
2023/10/26 02:47:40;;;;;;;1.70;1.00;;;;;;;12.57;86.20;98813.47;4167757;28;20044;-68
2023/10/26 02:49:43;;;;;;;3.95;0.88;;;;;;;12.54;86.44;98820.50;4167338;28;20115;-67
2023/10/26 02:51:46;;;;;;;3.10;1.17;;;;;;;12.60;85.62;98827.34;4166626;28;20044;-67
2023/10/26 02:53:48;;;;;;;0.93;0.93;;;;;;;12.53;85.12;98829.22;4192097;28;20439;-67
2023/10/26 02:55:52;;;;;;;4.53;1.45;;;;;;;12.36;85.13;98822.56;4171039;28;20060;-68
2023/10/26 02:57:55;;;;;;;1.58;1.05;;;;;;;12.30;85.11;98827.91;4167053;28;20033;-68
2023/10/26 03:00:00;;;;;;;2.25;1.10;;;;;;;12.17;84.11;98827.28;4176290;28;20041;-68
2023/10/26 03:02:05;;;;;;;3.42;1.30;;;;;;;12.19;84.33;98825.53;4184821;28;20402;-68
2023/10/26 03:04:08;;;;;;;1.60;1.23;;;;;;;12.22;84.04;98828.06;4172913;28;20067;-68
2023/10/26 03:06:11;;;;;;;1.30;1.20;;;;;;;12.23;84.14;98819.34;4187446;28;20037;-68
2023/10/26 03:08:14;;;;;;;2.33;1.60;;;;;;;12.18;83.66;98826.41;4168848;28;20084;-68
2023/10/26 03:10:17;;;;;;;2.90;1.83;;;;;;;12.19;83.12;98827.25;4173713;28;20045;-67
2023/10/26 03:12:21;;;;;;;1.58;1.38;;;;;;;12.01;82.64;98826.69;4186338;28;20036;-68
2023/10/26 03:14:24;;;;;;;2.50;1.35;;;;;;;11.87;81.72;98828.66;4189126;28;20372;-68
2023/10/26 03:16:28;;;;;;;1.73;1.50;;;;;;;11.86;82.32;98824.34;4192448;28;20028;-68
2023/10/26 03:18:32;;;;;;;1.95;1.38;;;;;;;11.89;83.07;98813.88;4187787;28;20287;-68
2023/10/26 03:20:36;;;;;;;2.53;1.63;;;;;;;11.90;82.48;98818.22;4186993;28;20044;-68
2023/10/26 03:22:38;;;;;;;1.92;1.52;;;;;;;11.93;82.50;98817.28;4164331;28;20029;-67
2023/10/26 03:24:41;;;;;;;1.95;1.40;;;;;;;11.92;82.39;98819.03;4170805;28;20033;-67
2023/10/26 03:26:44;;;;;;;2.45;1.50;;;;;;;11.84;81.44;98824.38;4173286;28;20029;-67
2023/10/26 03:28:50;;;;;;;2.13;1.40;;;;;;;11.87;81.89;98816.50;4189264;28;20044;-68
2023/10/26 03:30:53;;;;;;;2.83;1.50;;;;;;;11.96;82.04;98817.25;4168245;28;20037;-68
2023/10/26 03:32:56;;;;;;;2.13;1.67;;;;;;;11.99;82.27;98820.66;4163832;28;20061;-68
2023/10/26 03:35:00;;;;;;;3.20;2.22;;;;;;;12.03;82.35;98821.47;4191750;28;20090;-68
2023/10/26 03:37:04;;;;;;;1.60;1.50;;;;;;;12.05;82.12;98822.31;4193602;28;20056;-68
2023/10/26 03:39:07;;;;;;;3.95;1.60;;;;;;;12.08;82.60;98814.44;4193319;28;20040;-68
2023/10/26 03:41:10;;;;;;;1.88;1.50;;;;;;;12.08;82.29;98811.84;4192260;28;20387;-68
2023/10/26 03:43:13;;;;;;;3.88;1.70;;;;;;;12.03;82.19;98808.44;4170862;28;20041;-68
2023/10/26 03:45:16;;;;;;;4.75;1.33;;;;;;;12.05;82.29;98819.72;4165200;28;20039;-68
2023/10/26 03:47:19;;;;;;;2.67;1.65;;;;;;;12.05;82.10;98817.09;4170082;28;20511;-68
2023/10/26 03:49:22;;;;;;;2.13;1.55;;;;;;;12.07;81.83;98820.53;4192013;28;20048;-68
2023/10/26 03:51:26;;;;;;;4.07;1.90;;;;;;;12.07;82.25;98820.53;4171159;28;20066;-68
2023/10/26 03:53:29;;;;;;;2.78;1.75;;;;;;;12.05;82.15;98820.56;4175880;28;20128;-68
2023/10/26 03:55:33;;;;;;;7.10;1.75;;;;;;;12.05;82.55;98812.75;4194076;28;20127;-68
2023/10/26 03:57:35;;;;;;;1.85;1.60;;;;;;;11.95;81.22;98815.56;4172165;28;20046;-68
2023/10/26 03:59:38;;;;;;;1.95;1.50;;;;;;;11.96;81.17;98823.34;4172948;28;20048;-68
2023/10/26 04:01:41;;;;;;;3.45;1.48;;;;;;;11.98;81.61;98826.75;4191737;28;20483;-68
2023/10/26 04:03:43;;;;;;;2.13;1.60;;;;;;;12.01;80.73;98820.66;4193500;28;20540;-68
2023/10/26 04:05:46;;;;;;;1.65;1.45;;;;;;;12.00;81.06;98825.00;4189902;28;20131;-68
2023/10/26 04:07:50;;;;;;;2.22;1.73;;;;;;;11.99;81.69;98822.44;4184490;28;20037;-68
2023/10/26 04:09:53;;;;;;;1.40;1.30;;;;;;;11.95;80.29;98824.22;4169042;28;20120;-68
2023/10/26 04:11:56;;;;;;;1.85;1.52;;;;;;;11.93;80.08;98822.47;4178226;28;20498;-68
2023/10/26 04:13:59;;;;;;;2.00;1.60;;;;;;;11.87;80.33;98824.31;4185448;28;20033;-67
2023/10/26 04:16:02;;;;;;;2.50;1.63;;;;;;;11.89;80.50;98816.47;4189210;28;20032;-67
2023/10/26 04:18:06;;;;;;;1.52;1.27;;;;;;;11.88;80.71;98830.38;4191916;28;20036;-67
2023/10/26 04:20:11;;;;;;;1.48;1.33;;;;;;;11.90;80.47;98827.75;4189930;28;20055;-67
2023/10/26 04:22:13;;;;;;;2.28;1.73;;;;;;;11.86;80.93;98827.81;4188568;28;20044;-67
2023/10/26 04:24:18;;;;;;;1.70;1.60;;;;;;;11.81;80.17;98829.66;4193069;28;20044;-67
2023/10/26 04:26:20;;;;;;;4.00;1.75;;;;;;;11.80;80.15;98820.09;4193212;28;20043;-67
2023/10/26 04:28:23;;;;;;;4.47;1.90;;;;;;;11.84;80.72;98823.50;4194368;28;20375;-67
2023/10/26 04:30:26;;;;;;;2.92;1.88;;;;;;;11.86;81.04;98812.19;4170908;28;20126;-68
2023/10/26 04:32:29;;;;;;;2.78;1.88;;;;;;;11.88;80.83;98818.25;4196004;28;20071;-68
2023/10/26 04:35:03;;;;;;;2.38;1.50;;;;;;;11.91;80.51;98816.44;4180874;28;20384;-68
2023/10/26 04:37:06;;;;;;;2.50;1.58;;;;;;;11.77;79.36;98820.16;4195118;28;20071;-68
2023/10/26 04:39:09;;;;;;;3.53;1.70;;;;;;;11.81;80.15;98824.44;4199256;28;20050;-68
2023/10/26 04:41:14;;;;;;;3.05;1.83;;;;;;;11.85;79.83;98812.22;4195075;28;20094;-68
2023/10/26 04:43:17;;;;;;;2.03;1.63;;;;;;;11.81;80.10;98819.22;4193175;28;20037;-68
2023/10/26 04:45:20;;;;;;;2.65;2.00;;;;;;;11.84;80.02;98811.38;4194653;28;20734;-68
2023/10/26 04:47:23;;;;;;;1.83;1.55;;;;;;;11.83;80.18;98817.44;4172937;28;20042;-68
2023/10/26 04:49:26;;;;;;;2.90;1.67;;;;;;;11.81;80.70;98814.03;4191120;28;20041;-68
2023/10/26 04:51:31;;;;;;;1.95;1.60;;;;;;;11.82;80.84;98818.31;4175892;28;20052;-68
2023/10/26 04:53:34;;;;;;;2.83;1.60;;;;;;;11.81;80.66;98813.16;4196391;28;20045;-68
2023/10/26 04:55:37;;;;;;;3.20;1.90;;;;;;;11.82;80.38;98820.06;4194298;28;20067;-68
2023/10/26 04:57:41;;;;;;;2.63;2.00;;;;;;;11.76;79.61;98815.00;4194440;28;20062;-68
2023/10/26 04:59:45;;;;;;;2.65;1.67;;;;;;;11.75;79.45;98816.72;4197442;28;20123;-68
2023/10/26 05:01:47;;;;;;;4.40;2.00;;;;;;;11.78;79.50;98810.59;4191066;28;20040;-68
2023/10/26 05:03:53;;;;;;;3.05;2.03;;;;;;;11.74;80.24;98815.00;4195857;28;20028;-68
2023/10/26 05:05:56;;;;;;;2.83;1.98;;;;;;;11.74;80.16;98816.75;4194371;28;20048;-68
2023/10/26 05:07:59;;;;;;;4.65;1.98;;;;;;;11.73;79.76;98804.63;4176609;28;20041;-68
2023/10/26 05:10:02;;;;;;;2.63;2.08;;;;;;;11.75;80.82;98811.50;4195938;28;20959;-68
2023/10/26 05:12:06;;;;;;;1.67;1.50;;;;;;;11.77;80.16;98806.25;4193434;28;20037;-68
2023/10/26 05:14:10;;;;;;;2.17;1.63;;;;;;;11.75;80.40;98808.06;4194830;28;20123;-68
2023/10/26 05:16:13;;;;;;;3.35;2.05;;;;;;;11.72;80.18;98806.34;4196648;28;20132;-68
2023/10/26 05:18:17;;;;;;;3.42;2.33;;;;;;;11.74;79.85;98795.91;4189648;28;20036;-68
2023/10/26 05:20:21;;;;;;;2.45;2.05;;;;;;;11.75;80.19;98793.28;4195340;28;20094;-68
2023/10/26 05:22:23;;;;;;;4.05;2.08;;;;;;;11.73;80.15;98800.28;4179045;28;20079;-67
2023/10/26 05:24:27;;;;;;;4.18;1.92;;;;;;;11.73;80.13;98802.88;4196593;28;20487;-68
2023/10/26 05:26:30;;;;;;;2.33;1.95;;;;;;;11.74;79.89;98788.97;4179089;28;20108;-68
2023/10/26 05:28:33;;;;;;;3.22;2.15;;;;;;;11.73;80.01;98795.06;4195834;28;20509;-68
2023/10/26 05:30:37;;;;;;;2.50;1.90;;;;;;;11.72;79.41;98782.94;4156269;28;20057;-68
2023/10/26 05:32:40;;;;;;;2.33;1.60;;;;;;;11.71;80.30;98783.84;4195400;28;20041;-68
2023/10/26 05:34:43;;;;;;;2.47;1.98;;;;;;;11.73;80.15;98787.25;4192002;28;20037;-68
2023/10/26 05:36:46;;;;;;;2.78;2.20;;;;;;;11.77;80.21;98788.03;4195587;28;20043;-68
2023/10/26 05:38:50;;;;;;;2.05;1.85;;;;;;;11.68;79.24;98783.84;4192653;28;20430;-68
2023/10/26 05:40:55;;;;;;;2.10;1.73;;;;;;;11.69;79.40;98783.81;4196240;28;20090;-68
2023/10/26 05:42:58;;;;;;;2.53;1.92;;;;;;;11.66;79.90;98783.03;4196019;28;20487;-68
2023/10/26 05:45:01;;;;;;;2.67;1.70;;;;;;;11.69;79.19;98783.81;4193346;28;20169;-68
2023/10/26 05:47:06;;;;;;;3.70;1.95;;;;;;;11.72;79.73;98782.94;4196285;28;20115;-68
2023/10/26 05:49:09;;;;;;;4.28;2.08;;;;;;;11.70;78.92;98779.50;4192563;28;20498;-68
2023/10/26 05:51:11;;;;;;;2.88;1.67;;;;;;;11.63;79.09;98776.13;4192632;28;20043;-68
2023/10/26 05:53:13;;;;;;;2.20;1.98;;;;;;;11.63;79.45;98770.06;4177001;28;20037;-69
2023/10/26 05:55:16;;;;;;;4.03;1.88;;;;;;;11.63;79.70;98767.47;4187277;28;20072;-68
2023/10/26 05:57:18;;;;;;;4.40;1.90;;;;;;;11.68;79.06;98769.13;4176256;28;20212;-68
2023/10/26 05:59:22;;;;;;;2.20;2.00;;;;;;;11.70;80.00;98761.28;4196204;28;20035;-68
2023/10/26 06:01:25;;;;;;;2.33;2.08;;;;;;;11.73;79.59;98760.38;4195577;28;20537;-68
2023/10/26 06:03:29;;;;;;;3.50;1.65;;;;;;;11.75;80.01;98767.25;4195833;28;20036;-68
2023/10/26 06:05:32;;;;;;;;;;;;;;;11.55;78.65;98769.34;4195712;28;20040;-68
2023/10/26 06:07:34;;;;;;;2.63;1.40;;;;;;;11.56;79.53;98776.28;4192655;28;19970;-68
2023/10/26 06:09:37;;;;;;;2.55;1.52;;;;;;;11.59;79.32;98769.25;4188459;28;20047;-68
2023/10/26 06:11:39;;;;;;;2.28;1.80;;;;;;;11.65;79.36;98776.09;4188594;28;20098;-68
2023/10/26 06:13:44;;;;;;;6.32;1.95;;;;;;;11.67;78.98;98770.00;4177456;28;20037;-68
2023/10/26 06:15:49;;;;;;;1.90;1.50;;;;;;;11.66;78.44;98770.88;4177558;28;20063;-68
2023/10/26 06:17:52;;;;;;;3.53;1.60;;;;;;;11.68;79.12;98776.94;4195609;28;20054;-68
2023/10/26 06:19:57;;;;;;;3.00;1.90;;;;;;;11.70;78.80;98782.09;4191465;28;20067;-68
2023/10/26 06:22:00;;;;;;;2.40;1.77;;;;;;;11.70;78.08;98779.50;4191696;28;20028;-68
2023/10/26 06:24:02;;;;;;;2.50;1.90;;;;;;;11.65;77.97;98786.50;4172420;28;20032;-68
2023/10/26 06:26:05;;;;;;;2.80;1.83;;;;;;;11.62;78.41;98791.78;4195701;28;20044;-68
2023/10/26 06:28:08;;;;;;;2.88;1.80;;;;;;;11.61;78.65;98798.75;4188312;28;20037;-68
2023/10/26 06:30:11;;;;;;;1.88;1.65;;;;;;;11.58;78.40;98801.41;4189375;28;20045;-68
2023/10/26 06:32:14;;;;;;;4.50;1.92;;;;;;;11.62;78.71;98800.47;4189076;28;20072;-68
2023/10/26 06:34:17;;;;;;;5.57;2.20;;;;;;;11.64;78.35;98801.28;4193155;28;20032;-68
2023/10/26 06:36:21;;;;;;;3.00;2.10;;;;;;;11.70;79.26;98808.13;4174088;28;20037;-68
2023/10/26 06:38:24;;;;;;;4.38;2.25;;;;;;;11.72;78.68;98808.09;4193329;28;20477;-68
2023/10/26 06:40:27;;;;;;;5.30;2.20;;;;;;;11.74;79.18;98801.13;4191366;28;20040;-68
2023/10/26 06:42:30;;;;;;;3.40;2.40;;;;;;;11.77;80.03;98799.34;4194223;28;20044;-68
2023/10/26 06:44:39;;;;;;;3.65;2.00;;;;;;;11.77;80.57;98801.94;4194675;28;20040;-68
2023/10/26 06:46:42;;;;;;;6.63;2.88;;;;;;;11.78;80.89;98795.81;4192255;28;20044;-68
2023/10/26 06:48:44;;;;;;;7.32;3.00;;;;;;;11.79;81.44;98787.13;4194283;28;20033;-68
2023/10/26 06:50:47;;;;;;;7.78;2.65;;;;;;;11.76;81.92;98795.00;4165659;28;20037;-68
2023/10/26 06:52:51;;;;;;;2.72;2.15;;;;;;;11.76;81.79;98792.41;4177803;28;20041;-68
2023/10/26 06:54:54;;;;;;;5.47;2.25;;;;;;;11.78;81.24;98789.78;4195243;28;20032;-68
2023/10/26 06:56:57;;;;;;;3.90;1.92;;;;;;;11.76;80.98;98788.94;4195012;28;20106;-68
2023/10/26 06:59:00;;;;;;;6.68;2.40;;;;;;;11.77;81.22;98795.84;4186981;28;20036;-68
2023/10/26 07:01:04;;;;;;;4.32;2.72;;;;;;;11.78;81.49;98793.22;4195247;28;20036;-68
2023/10/26 07:03:21;;;;;;;5.65;2.47;;;;;;;11.78;81.86;98787.16;4177767;28;20120;-68
2023/10/26 07:05:25;;;;;;;5.18;2.60;;;;;;;11.79;82.47;98783.69;4192685;28;20129;-68
2023/10/26 07:07:28;;;;;;;6.07;2.95;;;;;;;11.81;82.34;98790.59;4193351;28;20067;-68
2023/10/26 07:09:32;;;;;;;3.60;2.97;;;;;;;11.86;81.20;98788.75;4190494;28;20475;-68
2023/10/26 07:11:35;;;;;;;7.57;2.88;;;;;;;11.77;81.04;98780.22;4195658;28;20059;-68
2023/10/26 07:13:38;;;;;;;4.10;2.60;;;;;;;11.80;80.38;98775.84;4192432;28;20123;-68
2023/10/26 07:15:41;;;;;;;3.05;2.70;;;;;;;11.84;80.34;98787.03;4186336;28;20041;-68
2023/10/26 07:17:44;;;;;;;3.67;2.72;;;;;;;11.81;80.71;98780.19;4194651;28;20165;-68
2023/10/26 07:19:47;;;;;;;5.40;3.45;;;;;;;11.83;81.26;98783.59;4177511;28;20453;-68
2023/10/26 07:21:50;;;;;;;6.85;4.00;;;;;;;11.89;81.55;98777.44;4191080;28;20048;-68
2023/10/26 07:23:53;;;;;;;5.65;3.67;;;;;;;11.92;81.46;98769.56;4194646;28;20043;-68
2023/10/26 07:25:58;;;;;;;4.80;2.80;;;;;;;11.88;81.75;98779.19;4176378;28;20120;-68
2023/10/26 07:28:01;;;;;;;5.85;3.58;;;;;;;11.89;82.50;98774.81;4191973;28;20060;-68
2023/10/26 07:30:04;;;;;;;4.70;2.92;;;;;;;11.96;82.65;98775.56;4188570;28;20435;-68
2023/10/26 07:32:07;;;;;;;5.00;3.25;;;;;;;11.98;82.70;98774.66;4194781;28;20040;-68
2023/10/26 07:34:10;;;;;;;4.97;2.85;;;;;;;12.01;82.90;98774.59;4190519;28;20494;-68
2023/10/26 07:36:13;;;;;;;5.68;3.22;;;;;;;12.07;82.76;98767.59;4195370;28;20047;-68
2023/10/26 07:38:16;;;;;;;3.30;2.58;;;;;;;12.09;83.18;98776.22;4191866;28;20384;-68
2023/10/26 07:40:38;;;;;;;3.58;2.80;;;;;;;12.09;82.85;98765.78;4186575;28;20063;-68
2023/10/26 07:42:43;;;;;;;4.40;3.15;;;;;;;12.12;82.70;98769.22;4184288;28;20098;-68
2023/10/26 07:44:45;;;;;;;3.78;2.75;;;;;;;12.13;82.48;98757.88;4193458;28;20040;-68
2023/10/26 07:46:48;;;;;;;6.28;3.03;;;;;;;12.15;82.11;98755.25;4172667;28;20602;-68
2023/10/26 07:48:50;;;;;;;9.15;3.20;;;;;;;12.22;82.06;98762.06;4166605;28;20045;-68
2023/10/26 07:50:53;;;;;;;4.47;3.17;;;;;;;12.26;81.46;98757.66;4189204;28;20028;-68
2023/10/26 07:52:56;;;;;;;4.30;3.25;;;;;;;12.27;81.25;98760.22;4191394;28;20060;-68
2023/10/26 07:54:59;;;;;;;3.75;3.13;;;;;;;12.29;81.56;98762.81;4188600;28;20044;-68
2023/10/26 07:57:02;;;;;;;5.80;3.55;;;;;;;12.36;82.39;98749.59;4193377;28;20037;-68
2023/10/26 07:59:06;;;;;;;5.22;3.72;;;;;;;12.38;81.76;98770.41;4183933;28;20451;-68
2023/10/26 08:01:10;;;;;;;5.75;3.88;;;;;;;12.46;80.74;98770.28;4190116;28;20033;-68
2023/10/26 08:03:13;;;;;;;9.13;4.07;;;;;;;12.43;80.35;98762.53;4161379;28;20125;-68
2023/10/26 08:05:16;;;;;;;8.95;4.45;;;;;;;12.44;80.14;98757.28;4174137;28;20072;-68
2023/10/26 08:07:19;;;;;;;9.73;4.47;;;;;;;12.46;80.01;98755.50;4193955;28;20539;-68
2023/10/26 08:09:22;;;;;;;7.50;4.60;;;;;;;12.50;80.12;98751.94;4173394;28;20052;-68
2023/10/26 08:11:25;;;;;;;10.02;4.63;;;;;;;12.64;79.20;98743.81;4178636;28;20051;-68
2023/10/26 08:13:27;;;;;;;8.93;5.13;;;;;;;12.57;79.44;98731.78;4174353;28;20044;-68
2023/10/26 08:15:31;;;;;;;6.22;4.38;;;;;;;12.56;79.66;98741.38;4196800;28;20490;-68
2023/10/26 08:17:54;;;;;;;10.30;5.55;;;;;;;12.62;78.43;98742.16;4194151;28;20063;-68
2023/10/26 08:19:58;;;;;;;8.25;4.47;;;;;;;12.53;79.16;98744.06;4173573;28;20645;-68
2023/10/26 08:22:02;;;;;;;10.48;5.60;;;;;;;12.61;78.50;98732.59;4194127;28;20074;-68
2023/10/26 08:24:06;;;;;;;9.57;4.80;;;;;;;12.53;78.32;98732.78;4178694;28;20131;-68
2023/10/26 08:26:11;;;;;;;7.28;4.82;;;;;;;12.48;78.91;98740.66;4192584;28;20033;-68
2023/10/26 08:28:15;;;;;;;7.53;4.57;;;;;;;12.46;79.73;98747.69;4196779;28;20047;-68
2023/10/26 08:30:18;;;;;;;6.28;3.95;;;;;;;12.49;79.82;98749.38;4180047;28;20052;-68
2023/10/26 08:32:22;;;;;;;7.50;4.25;;;;;;;12.53;79.82;98751.03;4195538;28;20051;-68
2023/10/26 08:34:26;;;;;;;8.20;4.13;;;;;;;12.67;79.19;98737.69;4195361;28;20504;-68
2023/10/26 08:36:29;;;;;;;7.60;4.30;;;;;;;12.64;78.98;98741.19;4177745;28;20515;-68
2023/10/26 08:38:32;;;;;;;6.00;3.80;;;;;;;12.66;79.00;98739.44;4193212;28;20287;-68
2023/10/26 08:40:36;;;;;;;6.43;4.10;;;;;;;12.61;79.08;98753.47;4197078;28;20124;-68
2023/10/26 08:42:39;;;;;;;7.43;4.10;;;;;;;12.61;78.97;98761.28;4193301;28;20345;-68
2023/10/26 08:44:42;;;;;;;6.75;3.90;;;;;;;12.64;79.21;98766.41;4194566;28;20068;-68
2023/10/26 08:46:48;;;;;;;6.33;3.83;;;;;;;12.68;79.96;98762.88;4197333;28;20390;-68
2023/10/26 08:48:56;;;;;;;5.53;3.60;;;;;;;12.73;79.14;98766.22;4196474;28;20040;-68
2023/10/26 08:50:59;;;;;;;6.30;3.58;;;;;;;12.72;79.50;98778.41;4157579;28;20069;-68
2023/10/26 08:53:02;;;;;;;7.72;4.20;;;;;;;12.72;79.25;98772.34;4195700;28;20051;-68
2023/10/26 08:55:06;;;;;;;5.10;3.30;;;;;;;12.77;79.84;98780.06;4195900;28;20487;-68
2023/10/26 08:57:09;;;;;;;7.50;3.30;;;;;;;12.80;80.01;98793.03;4196737;28;20555;-68
2023/10/26 08:59:12;;;;;;;6.53;4.00;;;;;;;12.82;80.66;98799.94;4178793;28;20423;-68
2023/10/26 09:01:15;;;;;;;4.97;3.47;;;;;;;12.87;80.37;98818.09;4194618;28;20475;-68
2023/10/26 09:03:21;;;;;;;8.50;4.18;;;;;;;12.81;79.80;98818.22;4194370;28;20047;-68
2023/10/26 09:05:25;;;;;;;7.32;3.95;;;;;;;12.83;79.79;98827.69;4195077;28;20147;-68
2023/10/26 09:07:36;;;;;;;6.50;3.65;;;;;;;12.86;79.92;98837.22;4196889;28;20094;-68
2023/10/26 09:09:48;;;;;;;8.23;4.13;;;;;;;12.90;80.64;98839.72;4195188;28;20033;-68
2023/10/26 09:11:51;;;;;;;5.18;3.65;;;;;;;12.91;80.94;98832.78;4195991;28;20199;-68
2023/10/26 09:13:54;;;;;;;5.55;3.53;;;;;;;12.91;80.93;98838.84;4196552;28;20064;-68
2023/10/26 09:15:59;;;;;;;5.22;3.58;;;;;;;12.90;80.89;98844.09;4178006;28;20051;-68
2023/10/26 09:18:08;;;;;;;5.40;3.90;;;;;;;12.87;79.73;98833.72;4189606;28;20044;-68
2023/10/26 09:20:20;;;;;;;4.50;3.08;;;;;;;12.89;79.95;98843.25;4177258;28;20071;-68
2023/10/26 09:22:37;;;;;;;5.10;3.15;;;;;;;12.89;80.18;98843.25;4197897;28;20094;-68
2023/10/26 09:24:40;;;;;;;4.93;3.42;;;;;;;12.89;80.49;98847.59;4191631;28;20064;-68
2023/10/26 09:26:42;;;;;;;7.40;3.90;;;;;;;12.91;80.38;98853.66;4192022;28;20044;-68
2023/10/26 09:28:52;;;;;;;5.93;4.10;;;;;;;12.93;80.97;98842.25;4191915;28;20032;-68
2023/10/26 09:31:00;;;;;;;6.78;4.20;;;;;;;12.90;80.99;98829.28;4193080;28;20042;-68
2023/10/26 09:33:05;;;;;;;8.75;4.13;;;;;;;12.97;81.10;98823.97;4192064;28;20053;-68
2023/10/26 09:35:08;;;;;;;5.70;3.35;;;;;;;12.92;81.48;98811.00;4193431;28;20032;-68
2023/10/26 09:37:11;;;;;;;7.28;3.53;;;;;;;12.89;81.77;98817.16;4197009;28;20048;-68
2023/10/26 09:39:15;;;;;;;5.37;3.07;;;;;;;12.90;81.46;98812.78;4192505;28;20109;-68
2023/10/26 09:41:20;;;;;;;7.63;3.78;;;;;;;12.81;81.89;98805.19;4196629;28;20068;-68
2023/10/26 09:43:22;;;;;;;7.60;4.07;;;;;;;12.81;82.44;98813.84;4196331;28;20036;-69